Time;durP1;ratioP1;P1;durP2;ratioP2;P2;SDS_P1;SDS_P2;PMS_P1;PMS_P2;Temp;Humidity;BMP_temperature;BMP_pressure;BME280_temperature;BME280_humidity;BME280_pressure;Samples;Min_cycle;Max_cycle;Signal;HPM_P1;HPM_P2
2022/11/17 00:00:00;;;;;;;42.30;22.52;;;;;;;6.07;97.23;97223.13;5018322;28;20040;-85
2022/11/17 00:02:26;;;;;;;51.03;25.83;;;;;;;5.93;98.42;97222.03;5019638;28;20100;-85
2022/11/17 00:04:51;;;;;;;50.45;24.23;;;;;;;5.92;98.16;97214.34;4989558;28;20041;-85
2022/11/17 00:07:16;;;;;;;43.72;22.77;;;;;;;5.97;98.23;97195.81;5006276;28;20037;-85
2022/11/17 00:09:42;;;;;;;39.92;22.77;;;;;;;5.87;97.60;97204.53;5007017;28;20037;-85
2022/11/17 00:14:51;;;;;;;33.15;21.52;;;;;;;6.25;97.65;97199.88;5025756;28;20045;-85
2022/11/17 00:17:16;;;;;;;43.97;23.42;;;;;;;6.01;96.95;97194.25;5005361;28;20064;-85
2022/11/17 00:22:29;;;;;;;39.58;21.23;;;;;;;6.26;96.77;97201.50;4998920;28;20088;-84
2022/11/17 00:24:55;;;;;;;41.08;22.73;;;;;;;5.77;97.41;97187.75;5001081;28;20064;-84
2022/11/17 00:27:20;;;;;;;36.67;21.58;;;;;;;5.82;98.89;97204.47;5003284;28;20124;-85
2022/11/17 00:29:45;;;;;;;48.40;24.48;;;;;;;6.21;97.48;97209.41;5005840;28;20109;-85
2022/11/17 00:34:57;;;;;;;43.83;23.23;;;;;;;5.74;98.17;97197.03;5026307;28;20079;-85
2022/11/17 00:37:23;;;;;;;47.20;24.67;;;;;;;5.77;98.49;97148.06;5004373;28;20385;-85
2022/11/17 00:39:49;;;;;;;36.53;21.15;;;;;;;6.43;97.89;97204.72;5021388;28;20026;-85
2022/11/17 00:42:14;;;;;;;40.28;22.00;;;;;;;6.30;95.35;97181.34;5015078;28;20652;-85
2022/11/17 00:44:40;;;;;;;43.47;22.17;;;;;;;6.00;97.06;97185.53;5004798;28;20040;-85
2022/11/17 00:47:05;;;;;;;39.97;21.00;;;;;;;6.19;97.42;97185.03;5004730;28;20163;-85
2022/11/17 00:49:30;;;;;;;43.92;22.35;;;;;;;5.79;98.60;97180.34;5004303;28;20461;-84
2022/11/17 00:51:56;;;;;;;41.33;22.95;;;;;;;5.78;99.33;97150.47;5021861;28;20029;-85
2022/11/17 00:54:22;;;;;;;44.85;23.73;;;;;;;5.85;98.02;97150.25;4990287;28;20061;-84
2022/11/17 00:56:48;;;;;;;38.03;21.77;;;;;;;5.62;98.24;97127.63;5002202;28;20482;-85
2022/11/17 00:59:14;;;;;;;42.20;23.98;;;;;;;5.80;98.74;97158.94;5025732;28;20041;-85
2022/11/17 01:01:41;;;;;;;43.80;21.80;;;;;;;5.87;99.15;97151.59;5022206;28;20201;-85
2022/11/17 01:04:07;;;;;;;51.10;25.23;;;;;;;5.51;99.52;97139.22;5020849;28;20033;-84
2022/11/17 01:06:39;;;;;;;39.67;23.25;;;;;;;5.73;98.67;97139.84;5018833;28;20030;-84
2022/11/17 01:09:09;;;;;;;40.67;22.25;;;;;;;5.59;99.68;97146.66;5024315;28;20048;-85
2022/11/17 01:11:34;;;;;;;48.20;24.40;;;;;;;5.45;99.05;97113.81;5017871;28;20410;-85
2022/11/17 01:14:00;;;;;;;38.35;19.73;;;;;;;6.25;98.65;97136.31;5008272;28;20030;-85
2022/11/17 01:16:26;;;;;;;35.63;21.17;;;;;;;6.19;97.62;97140.00;5021881;28;20080;-84
2022/11/17 01:18:52;;;;;;;35.45;21.00;;;;;;;5.94;98.25;97123.00;5025624;28;20536;-85
2022/11/17 01:21:20;;;;;;;36.35;20.25;;;;;;;5.61;98.28;97133.19;5022815;28;20037;-85
2022/11/17 01:23:49;;;;;;;36.67;20.98;;;;;;;5.66;98.05;97127.91;5019836;28;20079;-85
2022/11/17 01:26:20;;;;;;;32.65;20.27;;;;;;;5.82;98.08;97127.72;5022860;28;20385;-85
2022/11/17 01:28:46;;;;;;;34.42;21.08;;;;;;;5.90;96.94;97102.59;5025879;28;20138;-85
2022/11/17 01:31:14;;;;;;;32.85;18.98;;;;;;;6.10;95.80;97097.34;5006884;28;20486;-85
2022/11/17 01:33:41;;;;;;;36.95;19.98;;;;;;;5.91;97.00;97120.88;5009215;28;20029;-85
2022/11/17 01:36:11;;;;;;;38.38;20.95;;;;;;;5.80;96.81;97116.59;5028138;28;20036;-85
2022/11/17 01:38:37;;;;;;;31.38;19.65;;;;;;;5.76;96.68;97081.13;5031229;28;20029;-85
2022/11/17 01:41:05;;;;;;;33.45;17.88;;;;;;;6.39;96.34;97105.59;5007228;28;20018;-85
2022/11/17 01:43:52;;;;;;;32.58;17.30;;;;;;;6.30;95.20;97101.88;5023145;28;20497;-85
2022/11/17 01:46:29;;;;;;;;;;;;;;;5.51;97.20;97099.53;5027628;28;20087;-85
2022/11/17 01:49:18;;;;;;;33.78;18.90;;;;;;;5.83;97.13;97081.63;5016117;28;19928;-85
2022/11/17 01:51:49;;;;;;;34.38;18.75;;;;;;;5.63;96.47;97080.81;5035248;28;20112;-84
2022/11/17 01:54:19;;;;;;;28.85;17.63;;;;;;;5.24;98.09;97072.44;5023390;28;20048;-85
2022/11/17 01:56:46;;;;;;;34.08;19.63;;;;;;;5.11;99.40;97067.63;5027966;28;20497;-85
2022/11/17 01:59:22;;;;;;;32.20;18.77;;;;;;;5.61;98.64;97046.66;5028624;28;20025;-85
2022/11/17 02:01:54;;;;;;;27.00;18.08;;;;;;;5.44;97.87;97077.03;5020514;28;20100;-85
2022/11/17 02:04:34;;;;;;;31.33;20.00;;;;;;;5.63;98.13;97076.31;5006844;28;20065;-85
2022/11/17 02:07:24;;;;;;;29.02;17.60;;;;;;;5.68;97.11;97049.84;5021725;28;20061;-84
2022/11/17 02:09:51;;;;;;;29.50;18.60;;;;;;;6.01;96.25;97056.56;5009041;28;20072;-85
2022/11/17 02:12:18;;;;;;;32.88;19.05;;;;;;;5.82;96.45;97043.00;5021389;28;20037;-85
2022/11/17 02:14:45;;;;;;;31.10;17.95;;;;;;;5.51;96.80;97036.03;5025224;28;20075;-84
2022/11/17 02:17:10;;;;;;;34.22;17.30;;;;;;;5.91;97.66;97038.00;5025813;28;20021;-85
2022/11/17 02:19:39;;;;;;;34.20;19.40;;;;;;;5.73;95.45;96998.75;5021968;28;20374;-84
2022/11/17 02:22:26;;;;;;;28.00;17.33;;;;;;;6.09;95.95;97031.41;5027433;28;20017;-84
2022/11/17 02:25:18;;;;;;;25.52;16.88;;;;;;;6.16;96.30;97032.72;5022522;28;20513;-85
2022/11/17 02:27:59;;;;;;;33.13;18.35;;;;;;;5.73;96.67;97027.88;5022301;28;20568;-85
2022/11/17 02:30:34;;;;;;;26.48;16.42;;;;;;;6.37;94.33;97004.38;5019138;28;20433;-85
2022/11/17 02:33:11;;;;;;;25.90;15.10;;;;;;;6.53;95.24;97025.28;5025806;28;20462;-85
2022/11/17 02:35:40;;;;;;;25.27;16.45;;;;;;;6.65;92.95;97025.03;5021674;28;20075;-85
2022/11/17 02:38:14;;;;;;;23.92;15.43;;;;;;;5.81;94.10;97017.56;5020507;28;20025;-85
2022/11/17 02:40:50;;;;;;;25.10;16.02;;;;;;;5.80;96.46;96996.66;5019662;28;20029;-85
2022/11/17 02:46:08;;;;;;;24.40;14.48;;;;;;;5.51;96.44;97006.94;5020674;28;20052;-84
2022/11/17 02:48:40;;;;;;;26.40;17.25;;;;;;;6.22;96.47;97005.22;5024919;28;20493;-85
2022/11/17 02:51:11;;;;;;;24.35;15.55;;;;;;;6.20;95.27;96988.78;5017832;28;20038;-84
2022/11/17 02:53:38;;;;;;;31.75;16.25;;;;;;;5.87;96.01;96982.16;5010045;28;20061;-85
2022/11/17 02:56:04;;;;;;;25.77;14.52;;;;;;;5.74;94.23;96995.88;5019231;28;20029;-85
2022/11/17 02:58:29;;;;;;;22.95;14.80;;;;;;;5.88;96.38;96973.13;5025628;28;20086;-84
2022/11/17 03:01:04;;;;;;;22.30;14.35;;;;;;;6.02;93.61;96986.66;5021931;28;20242;-85
2022/11/17 03:03:50;;;;;;;24.20;14.90;;;;;;;6.09;94.86;96986.41;5026560;28;20030;-85
2022/11/17 03:06:27;;;;;;;23.45;15.15;;;;;;;5.76;94.83;96999.06;5019933;28;21334;-84
2022/11/17 03:09:02;;;;;;;21.08;13.68;;;;;;;6.19;95.00;96989.81;5027567;28;20444;-85
2022/11/17 03:12:09;;;;;;;28.75;14.85;;;;;;;5.85;94.90;96936.59;5024523;28;20061;-85
2022/11/17 03:14:46;;;;;;;32.60;17.25;;;;;;;5.35;94.67;96991.28;5024929;28;20033;-84
2022/11/17 03:17:29;;;;;;;28.05;15.65;;;;;;;5.37;95.83;96966.16;5024712;28;20122;-85
2022/11/17 03:20:14;;;;;;;26.55;16.27;;;;;;;5.07;96.51;96981.91;5002567;28;20033;-85
2022/11/17 03:23:00;;;;;;;24.65;15.40;;;;;;;5.66;96.09;96983.16;5022340;28;20018;-85
2022/11/17 03:25:31;;;;;;;27.02;15.93;;;;;;;5.47;94.13;96979.41;5024097;28;20037;-84
2022/11/17 03:27:59;;;;;;;27.33;17.10;;;;;;;5.50;96.47;96970.16;5015815;28;20049;-85
2022/11/17 03:30:27;;;;;;;29.85;17.45;;;;;;;5.00;97.19;96960.25;5025356;28;20060;-84
2022/11/17 03:32:58;;;;;;;25.77;15.77;;;;;;;5.74;97.14;96935.00;4993489;28;20044;-84
2022/11/17 03:35:28;;;;;;;28.80;17.08;;;;;;;5.52;95.45;96952.16;5010586;28;20071;-84
2022/11/17 03:38:00;;;;;;;29.30;14.85;;;;;;;6.02;95.42;96953.03;5023759;28;20499;-85
2022/11/17 03:40:31;;;;;;;26.75;15.98;;;;;;;5.50;94.43;96896.88;5025394;28;20073;-85
2022/11/17 03:43:00;;;;;;;26.70;15.45;;;;;;;5.35;96.63;96938.38;5026109;28;20333;-85
2022/11/17 03:45:32;;;;;;;31.40;16.75;;;;;;;5.65;96.56;96930.50;5025950;28;20029;-84
2022/11/17 03:48:15;;;;;;;30.15;16.17;;;;;;;5.99;95.25;96940.31;5043710;28;20029;-85
2022/11/17 03:50:51;;;;;;;28.23;16.00;;;;;;;5.67;94.21;96933.66;5016665;28;20026;-84
2022/11/17 03:53:16;;;;;;;29.95;15.93;;;;;;;6.33;92.80;96945.06;5024286;28;20029;-85
2022/11/17 03:55:53;;;;;;;27.40;16.63;;;;;;;5.99;92.01;96935.03;5026474;28;20045;-85
2022/11/17 03:58:23;;;;;;;24.90;15.35;;;;;;;5.93;93.83;96932.63;5024490;28;20115;-84
2022/11/17 04:00:51;;;;;;;30.48;17.23;;;;;;;5.27;95.63;96919.31;5022970;28;20656;-84
2022/11/17 04:03:16;;;;;;;28.50;17.50;;;;;;;5.66;95.64;96927.56;5020246;28;20068;-84
2022/11/17 04:05:42;;;;;;;31.75;17.27;;;;;;;5.64;94.53;96937.63;5025385;28;20029;-84
2022/11/17 04:08:07;;;;;;;31.63;16.05;;;;;;;5.24;95.70;96919.84;5025057;28;20031;-84
2022/11/17 04:15:54;;;;;;;30.30;17.45;;;;;;;5.22;97.48;96921.94;5007701;28;20116;-84
2022/11/17 04:16:02;;;;;;;31.05;20.05;;;;;;;4.92;97.82;96907.84;5024693;28;20086;-85
2022/11/17 04:18:27;;;;;;;35.35;19.38;;;;;;;5.02;96.81;96894.69;5006910;28;20050;-84
2022/11/17 04:20:55;;;;;;;32.75;17.60;;;;;;;4.61;97.46;96890.31;4990539;28;20084;-84
2022/11/17 04:23:22;;;;;;;36.10;18.83;;;;;;;4.86;98.73;96908.91;4994854;28;20036;-84
2022/11/17 04:28:38;;;;;;;;;;;;;;;4.82;98.39;96907.81;5018982;28;20065;-85
2022/11/17 04:31:18;;;;;;;29.50;17.52;;;;;;;4.98;98.45;96904.97;5020224;28;20008;-85
2022/11/17 04:33:45;;;;;;;37.83;19.35;;;;;;;5.00;97.77;96888.84;5017088;28;20033;-84
2022/11/17 04:36:12;;;;;;;32.47;17.40;;;;;;;4.72;97.98;96881.38;5018725;28;20033;-85
2022/11/17 04:38:43;;;;;;;33.83;18.75;;;;;;;4.51;97.65;96867.28;5020107;28;20037;-84
2022/11/17 04:43:54;;;;;;;32.95;17.25;;;;;;;4.67;97.15;96866.31;5026598;28;20060;-85
2022/11/17 04:46:21;;;;;;;34.50;16.98;;;;;;;4.76;97.68;96875.28;5023268;28;20485;-85
2022/11/17 04:48:47;;;;;;;31.23;17.88;;;;;;;4.78;96.35;96862.63;5024319;28;20037;-85
2022/11/17 04:51:13;;;;;;;29.05;16.33;;;;;;;5.12;96.66;96852.38;5019513;28;20084;-85
2022/11/17 04:53:39;;;;;;;34.08;16.75;;;;;;;4.71;96.16;96861.28;5024031;28;21232;-84
2022/11/17 04:56:05;;;;;;;31.30;18.48;;;;;;;4.67;97.24;96847.00;5019352;28;20037;-84
2022/11/17 04:58:30;;;;;;;29.83;16.77;;;;;;;4.86;96.83;96846.25;5025716;28;20025;-85
2022/11/17 05:01:11;;;;;;;31.77;18.20;;;;;;;4.39;97.37;96846.34;4996884;28;20053;-85
2022/11/17 05:04:05;;;;;;;24.38;15.07;;;;;;;4.76;98.02;96856.03;5005806;28;20129;-84
2022/11/17 05:06:50;;;;;;;25.63;14.40;;;;;;;4.81;97.90;96845.44;5015940;28;20048;-84
2022/11/17 05:09:16;;;;;;;28.02;16.02;;;;;;;4.98;97.29;96846.03;5022896;28;20040;-84
2022/11/17 05:14:28;;;;;;;26.50;15.32;;;;;;;5.29;96.75;96868.81;5025304;28;20462;-84
2022/11/17 05:17:08;;;;;;;28.70;16.20;;;;;;;5.35;96.77;96861.69;5023098;28;20093;-84
2022/11/17 05:19:38;;;;;;;27.08;14.63;;;;;;;5.83;93.51;96859.28;5023119;28;20033;-84
2022/11/17 05:24:50;;;;;;;22.42;12.77;;;;;;;5.30;95.76;96852.69;5020137;28;20048;-85
2022/11/17 05:27:16;;;;;;;27.00;14.52;;;;;;;5.23;94.09;96846.84;5018850;28;20025;-84
2022/11/17 05:29:41;;;;;;;23.48;13.27;;;;;;;5.77;93.86;96844.47;4990370;28;20056;-84
2022/11/17 05:32:07;;;;;;;22.65;12.65;;;;;;;5.65;94.97;96849.25;5022545;28;20025;-83
2022/11/17 05:34:32;;;;;;;25.77;14.60;;;;;;;5.24;95.12;96834.44;5005683;28;20021;-84
2022/11/17 05:36:57;;;;;;;30.65;13.45;;;;;;;5.16;94.53;96834.94;5018511;28;20517;-84
2022/11/17 05:39:23;;;;;;;23.85;13.07;;;;;;;5.07;95.83;96831.22;5016726;28;20157;-85
2022/11/17 05:41:48;;;;;;;23.67;12.70;;;;;;;5.09;95.79;96814.03;5017778;28;20037;-84
2022/11/17 05:44:13;;;;;;;24.15;15.05;;;;;;;5.48;94.94;96854.03;5009853;28;20045;-85
2022/11/17 05:46:39;;;;;;;22.85;13.38;;;;;;;6.27;91.83;96853.41;5026608;28;20029;-85
2022/11/17 05:49:04;;;;;;;20.77;12.05;;;;;;;5.49;93.38;96842.38;5006539;28;20486;-85
2022/11/17 05:51:31;;;;;;;19.80;12.52;;;;;;;5.14;95.42;96829.13;5024982;28;20394;-85
2022/11/17 05:53:56;;;;;;;20.33;12.52;;;;;;;5.71;93.56;96834.94;5019818;28;20034;-85
2022/11/17 05:56:32;;;;;;;21.88;13.00;;;;;;;5.31;94.72;96840.22;5002741;28;20113;-86
2022/11/17 05:59:26;;;;;;;24.73;12.18;;;;;;;5.02;96.20;96845.22;5025482;28;20037;-85
2022/11/17 06:02:15;;;;;;;23.88;13.23;;;;;;;5.19;94.77;96831.78;5024192;28;20044;-85
2022/11/17 06:04:42;;;;;;;21.77;11.68;;;;;;;5.30;95.13;96854.53;5025901;28;20553;-85
2022/11/17 06:07:08;;;;;;;23.60;13.43;;;;;;;5.30;95.13;96836.03;5028854;28;20048;-85
2022/11/17 06:09:37;;;;;;;23.17;12.75;;;;;;;5.23;95.10;96843.41;5027835;28;20381;-85
2022/11/17 06:12:03;;;;;;;25.08;12.88;;;;;;;4.73;96.16;96836.19;5028196;28;20607;-86
2022/11/17 06:14:29;;;;;;;19.90;11.15;;;;;;;5.06;97.89;96797.91;5021622;28;20029;-85
2022/11/17 06:17:00;;;;;;;19.30;11.10;;;;;;;5.34;96.40;96818.56;5025712;28;20037;-85
2022/11/17 06:19:40;;;;;;;20.98;12.13;;;;;;;4.97;97.31;96820.66;5009259;28;20030;-86
2022/11/17 06:22:07;;;;;;;23.63;13.73;;;;;;;4.75;97.23;96806.84;5031731;28;20017;-86
2022/11/17 06:24:32;;;;;;;25.13;13.35;;;;;;;4.90;97.65;96818.25;5032834;28;20025;-85
2022/11/17 06:26:58;;;;;;;19.77;12.45;;;;;;;4.62;97.42;96810.00;4997691;28;20512;-85
2022/11/17 06:29:25;;;;;;;18.33;10.55;;;;;;;5.63;95.56;96795.00;5009808;28;20383;-85
2022/11/17 06:31:50;;;;;;;24.77;13.40;;;;;;;5.40;94.28;96812.22;5013536;28;20034;-85
2022/11/17 06:34:16;;;;;;;18.23;11.77;;;;;;;5.40;95.77;96812.22;5032461;28;20040;-85
2022/11/17 06:36:41;;;;;;;24.10;11.25;;;;;;;4.97;96.34;96786.28;5032018;28;20052;-85
2022/11/17 06:39:06;;;;;;;19.33;11.70;;;;;;;5.35;96.23;96812.22;5024819;28;20084;-85
2022/11/17 06:41:32;;;;;;;20.52;12.27;;;;;;;4.98;95.21;96793.16;5018898;28;20034;-85
2022/11/17 06:43:57;;;;;;;21.73;11.75;;;;;;;4.82;96.39;96773.84;5012388;28;20410;-85
2022/11/17 06:46:22;;;;;;;17.77;11.77;;;;;;;5.02;98.28;96800.28;5013923;28;20039;-85
2022/11/17 06:48:48;;;;;;;21.77;12.75;;;;;;;4.75;97.46;96799.72;5031932;28;20036;-85
2022/11/17 06:51:13;;;;;;;26.17;13.70;;;;;;;4.86;97.43;96782.03;5028578;28;20091;-85
2022/11/17 06:53:39;;;;;;;24.15;12.85;;;;;;;4.64;97.86;96770.91;5009425;28;20053;-85
2022/11/17 06:56:06;;;;;;;23.20;12.48;;;;;;;4.62;96.98;96759.78;4996427;28;20036;-85
2022/11/17 06:58:33;;;;;;;17.33;11.05;;;;;;;5.07;97.99;96754.56;5015393;28;20528;-85
2022/11/17 07:01:07;;;;;;;16.77;10.43;;;;;;;5.59;95.31;96786.78;5025963;28;20142;-85
2022/11/17 07:03:34;;;;;;;16.95;10.15;;;;;;;5.43;96.99;96777.28;5032656;28;20559;-85
2022/11/17 07:06:00;;;;;;;17.77;11.05;;;;;;;5.05;95.38;96786.53;5024969;28;20075;-85
2022/11/17 07:08:27;;;;;;;21.42;12.93;;;;;;;4.76;98.01;96784.69;5019576;28;20037;-85
2022/11/17 07:10:53;;;;;;;17.38;11.57;;;;;;;4.86;97.16;96764.34;5032565;28;20025;-85
2022/11/17 07:13:23;;;;;;;19.77;10.50;;;;;;;5.17;95.29;96767.78;5030229;28;20493;-85
2022/11/17 07:15:50;;;;;;;15.95;11.45;;;;;;;5.17;94.99;96773.06;5025946;28;20109;-85
2022/11/17 07:18:18;;;;;;;18.63;10.80;;;;;;;5.12;94.67;96752.72;5031437;28;20108;-85
2022/11/17 07:20:44;;;;;;;16.13;9.25;;;;;;;5.37;94.97;96746.63;5027933;28;20029;-85
2022/11/17 07:23:10;;;;;;;14.35;8.60;;;;;;;5.24;93.59;96733.94;5022611;28;20486;-85
2022/11/17 07:25:35;;;;;;;11.68;8.20;;;;;;;5.46;95.44;96746.88;5030532;28;20459;-85
2022/11/17 07:28:01;;;;;;;15.93;10.50;;;;;;;5.03;96.41;96764.06;5012816;28;20115;-85
2022/11/17 07:30:26;;;;;;;15.77;10.25;;;;;;;5.41;94.48;96739.75;5029635;28;20041;-85
2022/11/17 07:32:52;;;;;;;19.05;10.30;;;;;;;5.08;95.46;96766.72;5010417;28;20088;-85
2022/11/17 07:35:18;;;;;;;13.25;9.32;;;;;;;5.03;95.86;96756.94;5028768;28;20470;-85
2022/11/17 07:37:43;;;;;;;12.77;9.48;;;;;;;5.22;96.18;96736.84;5006515;28;20033;-85
2022/11/17 07:40:09;;;;;;;14.63;8.85;;;;;;;4.89;94.94;96728.66;5030298;28;20029;-85
2022/11/17 07:42:34;;;;;;;12.55;8.07;;;;;;;4.77;96.63;96757.19;5007356;28;20128;-85
2022/11/17 07:45:00;;;;;;;14.27;8.85;;;;;;;4.75;97.11;96777.78;5011452;28;20040;-85
2022/11/17 07:47:25;;;;;;;9.77;7.15;;;;;;;5.70;95.58;96753.19;5008962;28;20084;-85
2022/11/17 07:49:51;;;;;;;10.45;6.72;;;;;;;5.89;92.82;96768.25;5002051;28;20033;-85
2022/11/17 07:52:16;;;;;;;10.95;6.82;;;;;;;6.50;89.93;96762.69;4997343;28;20033;-85
2022/11/17 07:54:41;;;;;;;7.38;5.10;;;;;;;6.07;89.66;96752.84;5013434;28;20044;-85
2022/11/17 07:57:07;;;;;;;6.20;4.50;;;;;;;5.75;90.93;96750.50;5029538;28;20055;-85
2022/11/17 07:59:32;;;;;;;9.00;6.00;;;;;;;6.13;91.52;96764.97;5029087;28;20033;-85
2022/11/17 08:01:57;;;;;;;5.38;4.80;;;;;;;6.25;89.58;96776.03;5008666;28;20533;-85
2022/11/17 08:04:23;;;;;;;7.50;4.90;;;;;;;6.31;89.75;96737.91;5028871;28;20029;-85
2022/11/17 08:06:48;;;;;;;6.28;4.43;;;;;;;5.91;91.47;96766.13;5021154;28;20083;-85
2022/11/17 08:09:15;;;;;;;6.70;5.05;;;;;;;5.12;94.43;96773.88;5031035;28;20036;-85
2022/11/17 08:11:40;;;;;;;8.15;5.28;;;;;;;5.36;95.20;96768.84;5030711;28;20045;-85
2022/11/17 08:14:06;;;;;;;6.35;5.70;;;;;;;5.12;93.57;96733.41;5030867;28;20486;-85
2022/11/17 08:16:32;;;;;;;6.95;5.00;;;;;;;5.43;94.42;96774.66;5022979;28;20090;-85
2022/11/17 08:18:57;;;;;;;7.65;4.82;;;;;;;5.98;93.76;96771.13;5029030;28;20030;-85
2022/11/17 08:21:23;;;;;;;5.75;4.43;;;;;;;5.53;92.49;96757.94;5026768;28;20476;-85
2022/11/17 08:23:51;;;;;;;5.60;4.28;;;;;;;5.74;91.74;96757.69;5027165;28;20032;-85
2022/11/17 08:26:16;;;;;;;6.35;4.45;;;;;;;6.26;92.08;96761.75;5012082;28;20116;-85
2022/11/17 08:28:42;;;;;;;6.20;4.70;;;;;;;6.08;91.09;96728.72;5027027;28;20111;-85
2022/11/17 08:31:07;;;;;;;5.18;4.20;;;;;;;6.13;91.36;96751.75;4996206;28;20120;-85
2022/11/17 08:33:33;;;;;;;6.63;4.65;;;;;;;6.51;90.49;96772.25;5022372;28;20399;-85
2022/11/17 08:36:00;;;;;;;5.07;3.78;;;;;;;5.81;91.65;96763.47;5026864;28;20029;-85
2022/11/17 08:38:27;;;;;;;6.60;4.90;;;;;;;5.98;90.90;96742.00;5020385;28;20030;-85
2022/11/17 08:41:04;;;;;;;5.53;4.47;;;;;;;5.76;92.14;96742.31;5022407;28;20343;-85
2022/11/17 08:43:30;;;;;;;7.60;4.10;;;;;;;5.94;92.29;96751.56;5018919;28;20052;-84
2022/11/17 08:45:55;;;;;;;6.13;3.90;;;;;;;6.38;90.74;96748.97;5026522;28;20025;-85
2022/11/17 08:48:21;;;;;;;7.70;3.67;;;;;;;6.63;90.11;96744.34;5009854;28;20045;-85
2022/11/17 08:50:47;;;;;;;4.40;3.65;;;;;;;6.47;89.72;96750.78;5027105;28;20025;-85
2022/11/17 08:53:19;;;;;;;3.63;3.33;;;;;;;6.46;89.47;96740.47;5027846;28;20033;-85
2022/11/17 08:55:46;;;;;;;12.35;4.53;;;;;;;5.86;92.94;96752.09;4995116;28;20034;-85
2022/11/17 08:58:11;;;;;;;4.68;3.83;;;;;;;5.99;91.21;96764.75;5009065;28;20156;-85
2022/11/17 09:00:38;;;;;;;4.00;3.03;;;;;;;6.22;92.27;96731.59;5029768;28;20033;-85
2022/11/17 09:03:06;;;;;;;5.82;4.07;;;;;;;5.59;93.61;96723.28;5021344;28;20489;-85
2022/11/17 09:05:34;;;;;;;4.82;3.78;;;;;;;6.20;92.38;96745.09;5028732;28;20544;-85
2022/11/17 09:07:59;;;;;;;7.15;4.18;;;;;;;5.73;93.29;96750.78;5025353;28;20037;-85
2022/11/17 09:10:28;;;;;;;5.72;4.28;;;;;;;5.24;94.39;96733.94;5022165;28;20176;-85
2022/11/17 09:12:54;;;;;;;7.35;4.00;;;;;;;5.36;94.85;96729.16;4993695;28;20026;-86
2022/11/17 09:15:20;;;;;;;4.68;3.65;;;;;;;5.96;92.05;96722.97;5010881;28;20053;-85
2022/11/17 09:17:46;;;;;;;6.00;3.95;;;;;;;5.89;92.72;96730.38;5028492;28;20196;-84
2022/11/17 09:20:13;;;;;;;4.90;3.40;;;;;;;5.62;94.95;96727.25;5024700;28;20021;-85
2022/11/17 09:22:38;;;;;;;6.50;4.40;;;;;;;5.97;93.13;96720.03;5027631;28;20037;-85
2022/11/17 09:25:04;;;;;;;6.03;3.38;;;;;;;6.30;91.18;96712.47;5010117;28;20037;-85
2022/11/17 09:27:29;;;;;;;3.47;2.97;;;;;;;5.90;92.88;96701.00;5026780;28;20493;-85
2022/11/17 09:29:55;;;;;;;3.90;3.22;;;;;;;5.94;92.49;96711.84;5009537;28;20029;-85
2022/11/17 09:32:20;;;;;;;3.22;2.90;;;;;;;6.59;90.88;96713.34;5024329;28;20313;-85
2022/11/17 09:34:45;;;;;;;5.18;2.72;;;;;;;6.16;91.39;96692.94;5028733;28;20033;-85
2022/11/17 09:37:11;;;;;;;3.60;3.10;;;;;;;5.97;91.59;96713.94;5011846;28;20090;-85
2022/11/17 09:39:36;;;;;;;4.63;3.13;;;;;;;6.26;91.41;96716.72;5025043;28;20137;-85
2022/11/17 09:42:02;;;;;;;2.80;2.58;;;;;;;5.75;92.60;96708.97;5005069;28;20385;-85
2022/11/17 09:44:39;;;;;;;4.25;3.03;;;;;;;5.67;93.85;96711.38;5029285;28;20095;-85
2022/11/17 09:47:11;;;;;;;4.35;2.95;;;;;;;6.30;92.95;96736.28;5024353;28;20033;-85
2022/11/17 09:49:51;;;;;;;4.10;3.20;;;;;;;5.87;93.40;96728.03;5022133;28;20026;-85
2022/11/17 09:52:16;;;;;;;4.63;2.53;;;;;;;6.46;92.50;96721.91;5023409;28;20092;-85
2022/11/17 09:54:48;;;;;;;5.18;2.97;;;;;;;6.28;92.28;96733.13;5027492;28;20488;-85
2022/11/17 09:57:28;;;;;;;3.50;2.78;;;;;;;6.22;92.38;96728.94;5025613;28;20033;-85
2022/11/17 10:00:06;;;;;;;6.32;3.30;;;;;;;5.90;95.08;96726.66;5019299;28;20466;-85
2022/11/17 10:02:32;;;;;;;4.82;3.70;;;;;;;5.88;93.70;96710.25;5031569;28;20029;-85
2022/11/17 10:04:59;;;;;;;3.65;2.88;;;;;;;5.77;94.57;96722.72;5030441;28;20036;-84
2022/11/17 10:07:26;;;;;;;5.43;3.72;;;;;;;6.00;94.79;96724.78;5026354;28;20094;-85
2022/11/17 10:09:53;;;;;;;6.15;4.13;;;;;;;5.73;95.24;96719.03;5031269;28;20033;-85
2022/11/17 10:12:23;;;;;;;7.28;4.82;;;;;;;6.01;93.63;96693.78;5030944;28;20033;-85
2022/11/17 10:14:49;;;;;;;3.80;3.35;;;;;;;6.24;93.64;96718.84;5008740;28;20097;-85
2022/11/17 10:17:14;;;;;;;6.28;4.65;;;;;;;5.69;93.70;96696.00;5027743;28;20029;-85
2022/11/17 10:19:40;;;;;;;5.43;3.70;;;;;;;5.75;95.64;96716.91;5011869;28;20041;-85
2022/11/17 10:22:06;;;;;;;5.38;4.28;;;;;;;5.98;94.20;96720.81;5024420;28;20052;-85
2022/11/17 10:24:45;;;;;;;4.50;3.92;;;;;;;6.00;93.95;96695.66;5030417;28;20489;-84
2022/11/17 10:27:16;;;;;;;6.05;3.60;;;;;;;6.37;93.46;96718.25;5016374;28;20211;-86
2022/11/17 10:30:05;;;;;;;4.47;4.05;;;;;;;6.09;94.48;96725.03;5030802;28;20401;-85
2022/11/17 10:32:34;;;;;;;3.92;3.58;;;;;;;5.87;95.84;96728.03;5026450;28;20025;-85
2022/11/17 10:35:35;;;;;;;5.53;4.65;;;;;;;5.60;96.61;96719.59;5025809;28;20030;-85
2022/11/17 10:38:14;;;;;;;7.32;5.00;;;;;;;5.19;96.81;96691.63;5021717;28;20437;-85
2022/11/17 10:40:39;;;;;;;5.55;4.65;;;;;;;5.48;97.83;96707.72;5032122;28;20523;-84
2022/11/17 10:43:21;;;;;;;7.00;4.20;;;;;;;6.20;93.92;96715.16;5031706;28;20124;-85
2022/11/17 10:45:51;;;;;;;7.72;4.93;;;;;;;5.87;96.35;96712.13;5032479;28;20113;-85
2022/11/17 10:48:29;;;;;;;4.30;3.53;;;;;;;5.58;95.20;96716.41;5023062;28;20124;-85
2022/11/17 10:51:02;;;;;;;6.55;4.57;;;;;;;5.46;96.22;96688.69;5028734;28;20026;-85
2022/11/17 10:53:37;;;;;;;5.10;4.22;;;;;;;5.88;95.42;96703.13;5025854;28;20025;-85
2022/11/17 10:56:20;;;;;;;4.65;3.90;;;;;;;6.36;93.97;96690.16;5031859;28;20504;-85
2022/11/17 10:59:15;;;;;;;5.75;3.55;;;;;;;6.01;93.52;96709.69;5020547;28;20084;-85
2022/11/17 11:01:48;;;;;;;4.65;4.00;;;;;;;6.19;93.63;96708.28;5030408;28;20037;-85
2022/11/17 11:04:34;;;;;;;4.97;4.20;;;;;;;6.07;93.66;96706.72;5022190;28;20052;-85
2022/11/17 11:07:10;;;;;;;5.35;3.85;;;;;;;5.81;95.41;96686.69;5024669;28;20057;-85
2022/11/17 11:09:47;;;;;;;6.72;5.13;;;;;;;5.93;93.55;96684.56;5015860;28;20359;-85
2022/11/17 11:12:18;;;;;;;5.10;4.03;;;;;;;6.37;95.02;96710.31;5019358;28;20029;-85
2022/11/17 11:14:53;;;;;;;5.15;4.20;;;;;;;6.42;93.68;96712.94;5026841;28;20082;-86
2022/11/17 11:17:19;;;;;;;4.43;3.93;;;;;;;6.75;90.89;96709.53;5028141;28;20033;-85
2022/11/17 11:19:51;;;;;;;4.75;3.55;;;;;;;6.53;91.86;96714.47;5032552;28;20037;-85
2022/11/17 11:22:29;;;;;;;4.22;3.75;;;;;;;6.06;94.30;96712.31;5027780;28;20033;-84
2022/11/17 11:25:09;;;;;;;5.78;4.45;;;;;;;6.10;94.17;96704.59;5031242;28;20017;-84
2022/11/17 11:28:01;;;;;;;7.10;5.60;;;;;;;6.01;96.59;96705.19;5029369;28;20513;-85
2022/11/17 11:30:35;;;;;;;7.93;5.72;;;;;;;5.70;94.90;96690.44;5026454;28;20509;-85
2022/11/17 11:33:27;;;;;;;8.38;6.05;;;;;;;5.73;96.86;96711.09;5014057;28;20113;-85
2022/11/17 11:36:23;;;;;;;6.35;3.92;;;;;;;6.76;92.52;96711.91;5028063;28;20100;-86
2022/11/17 11:39:17;;;;;;;6.93;5.70;;;;;;;5.53;96.35;96686.53;5026413;28;20033;-85
2022/11/17 11:41:42;;;;;;;8.70;5.93;;;;;;;5.37;98.51;96685.78;5023366;28;20440;-85
2022/11/17 11:44:22;;;;;;;4.32;3.88;;;;;;;5.98;98.38;96689.81;5025234;28;20025;-85
2022/11/17 11:47:28;;;;;;;4.53;3.67;;;;;;;6.48;93.09;96674.75;5026973;28;20025;-85
2022/11/17 11:50:02;;;;;;;5.63;3.80;;;;;;;6.66;92.01;96676.75;5029699;28;20104;-85
2022/11/17 11:52:33;;;;;;;6.85;4.25;;;;;;;6.55;92.94;96676.00;5027569;28;20117;-86
2022/11/17 11:55:02;;;;;;;5.20;3.90;;;;;;;6.41;93.25;96672.41;5031983;28;20033;-86
2022/11/17 11:57:43;;;;;;;6.65;5.53;;;;;;;6.13;93.93;96667.00;5028356;28;20080;-85
2022/11/17 12:00:16;;;;;;;7.05;5.45;;;;;;;5.75;96.03;96666.59;5023567;28;20052;-85
2022/11/17 12:03:12;;;;;;;7.97;5.85;;;;;;;6.27;95.26;96684.66;5031392;28;20036;-85
2022/11/17 12:06:38;;;;;;;10.90;5.25;;;;;;;6.50;94.04;96675.25;5030742;28;20071;-85
2022/11/17 12:08:54;;;;;;;9.32;6.88;;;;;;;6.12;95.23;96678.63;5025674;28;20482;-85
2022/11/17 12:14:05;;;;;;;8.43;5.50;;;;;;;6.02;96.07;96690.09;5021623;28;20041;-85